»·PEaware :: DAL1273 KSBA-KSLC

DAL1273 :: KSBA-KSLC

FLIGHT INFORMATION

Flight Status: Arrived
Operator:
Delta Air Lines
More flights by this operator :: More flights under this callsign
Pilot: James B. (30262)
Aircraft: AIRBUS A319
(A319)
More flights by this aircraft type
Origin: KSBA Santa Barbara Mun
United States
Destination: KSLC Salt Lake City Intl
United States
More flights between these airports :: More routes between these airports
Route: MISHN3 NNAVY BLD J60 BCE QWENN5
File this flight plan on PilotEdge
Remarks:
Altitude:
(Current/Filed)
33,000ft
Speed:
(Current/Filed)
464kts
Departed: 30-Jul-20 06:47 PM
Arrived: 30-Jul-20 08:20 PM
Distance/Time
Traveled:
534nm/1:33
Distance/Time
To Go:
Arrived

Flight Plot

Page will automatically refresh every two minutes.


Map Options




Map Legend


Flown Route
Filed Route
Departure Airport
Arrival Airport
Navaid (VOR, NDB)
Fix

Horizontal Profiles

Position Reports

Time Latitude Longitude Heading Altitude Ground
Speed
30-Jul-20 18:13 34.425130 -119.837233 111 16ft 0kts
30-Jul-20 18:14 34.425130 -119.837233 111 16ft 0kts
30-Jul-20 18:15 34.425130 -119.837233 111 16ft 0kts
30-Jul-20 18:16 34.425130 -119.837233 111 16ft 0kts
30-Jul-20 18:17 34.425130 -119.837233 111 16ft 0kts
30-Jul-20 18:18 34.425130 -119.837233 111 16ft 0kts
30-Jul-20 18:19 34.425130 -119.837233 111 16ft 0kts
30-Jul-20 18:20 34.425130 -119.837233 111 16ft 0kts
30-Jul-20 18:21 34.425130 -119.837233 111 16ft 0kts
30-Jul-20 18:22 34.425130 -119.837233 111 16ft 0kts
30-Jul-20 18:23 34.425130 -119.837233 111 16ft 0kts
30-Jul-20 18:24 34.425130 -119.837233 111 16ft 0kts
30-Jul-20 18:25 34.425130 -119.837233 111 16ft 0kts
30-Jul-20 18:26 34.425130 -119.837233 111 16ft 0kts
30-Jul-20 18:27 34.425130 -119.837233 111 16ft 0kts
30-Jul-20 18:28 34.425130 -119.837233 111 16ft 0kts
30-Jul-20 18:29 34.425130 -119.837233 111 16ft 0kts
30-Jul-20 18:30 34.425130 -119.837233 111 16ft 0kts
30-Jul-20 18:31 34.425130 -119.837233 111 16ft 0kts
30-Jul-20 18:32 34.425130 -119.837233 111 16ft 0kts
30-Jul-20 18:33 34.425130 -119.837233 111 16ft 0kts
30-Jul-20 18:34 34.425130 -119.837233 111 16ft 0kts
30-Jul-20 18:35 34.425130 -119.837234 111 16ft 0kts
30-Jul-20 18:36 34.425130 -119.837234 111 16ft 0kts
30-Jul-20 18:37 34.425182 -119.837290 85 16ft 0kts
30-Jul-20 18:38 34.424834 -119.837771 357 18ft 2kts
30-Jul-20 18:39 34.424547 -119.837691 347 17ft 0kts
30-Jul-20 18:40 34.424547 -119.837691 347 17ft 0kts
30-Jul-20 18:41 34.424547 -119.837691 347 17ft 0kts
30-Jul-20 18:42 34.424547 -119.837691 347 17ft 0kts
30-Jul-20 18:43 34.426221 -119.838201 344 16ft 15kts
30-Jul-20 18:44 34.426952 -119.834618 13 15ft 8kts
30-Jul-20 18:45 34.427014 -119.834622 351 15ft 0kts
30-Jul-20 18:46 34.427803 -119.840726 268 19ft 95kts
30-Jul-20 18:47 34.426026 -119.890804 266 2161ft 163kts
30-Jul-20 18:48 34.397203 -119.935800 181 4213ft 239kts
30-Jul-20 18:49 34.328106 -119.917722 136 7300ft 284kts
30-Jul-20 18:50 34.271934 -119.847714 138 10663ft 299kts
30-Jul-20 18:51 34.209657 -119.764741 119 12194ft 377kts
30-Jul-20 18:52 34.197177 -119.637577 94 15581ft 387kts
30-Jul-20 18:53 34.196104 -119.505600 88 18194ft 400kts
30-Jul-20 18:54 34.201738 -119.368928 88 20418ft 414kts
30-Jul-20 18:55 34.207199 -119.228174 88 22409ft 427kts
30-Jul-20 18:56 34.215727 -119.083004 82 24183ft 440kts
30-Jul-20 18:57 34.243328 -118.937798 77 25832ft 450kts
30-Jul-20 18:58 34.273062 -118.789425 77 27300ft 459kts
30-Jul-20 18:59 34.303171 -118.637349 77 28561ft 470kts
30-Jul-20 19:00 34.333676 -118.482040 76 29763ft 479kts
30-Jul-20 19:01 34.363874 -118.327084 77 31327ft 475kts
30-Jul-20 19:02 34.393498 -118.173951 77 32693ft 471kts
30-Jul-20 19:03 34.426949 -118.019644 70 33068ft 473kts
30-Jul-20 19:04 34.480280 -117.874868 63 33066ft 472kts
30-Jul-20 19:05 34.536403 -117.730976 63 33068ft 471kts
30-Jul-20 19:06 34.591874 -117.587499 63 33084ft 469kts
30-Jul-20 19:08 34.647035 -117.444134 63 33091ft 470kts
30-Jul-20 19:09 34.702261 -117.299858 64 33092ft 470kts
30-Jul-20 19:10 34.756989 -117.156042 64 33088ft 470kts
30-Jul-20 19:11 34.811945 -117.011369 64 33052ft 472kts
30-Jul-20 19:12 34.866870 -116.866256 64 33004ft 474kts
30-Jul-20 19:13 34.924469 -116.722258 57 32978ft 473kts
30-Jul-20 19:14 34.999487 -116.590713 52 32973ft 472kts
30-Jul-20 19:15 35.076150 -116.461145 52 32988ft 473kts
30-Jul-20 19:16 35.152783 -116.331264 52 33010ft 472kts
30-Jul-20 19:17 35.229252 -116.200393 52 33017ft 473kts
30-Jul-20 19:18 35.305431 -116.069637 52 33018ft 474kts
30-Jul-20 19:19 35.381437 -115.938714 52 33018ft 472kts
30-Jul-20 19:20 35.457579 -115.807134 52 33017ft 473kts
30-Jul-20 19:21 35.533356 -115.675673 52 33013ft 473kts
30-Jul-20 19:21 35.596585 -115.565584 52 33010ft 473kts
30-Jul-20 19:23 35.684725 -115.411534 52 33009ft 473kts
30-Jul-20 19:24 35.759986 -115.279175 52 33009ft 472kts
30-Jul-20 19:25 35.835138 -115.146567 52 33008ft 472kts
30-Jul-20 19:25 35.897746 -115.035937 52 32996ft 472kts
30-Jul-20 19:26 35.972549 -114.903351 52 32974ft 471kts
30-Jul-20 19:28 36.067769 -114.756642 46 32963ft 471kts
30-Jul-20 19:29 36.152494 -114.633522 46 32962ft 471kts
30-Jul-20 19:29 36.223158 -114.530198 46 32961ft 471kts
30-Jul-20 19:31 36.321445 -114.385517 46 32962ft 471kts
30-Jul-20 19:31 36.391139 -114.282187 46 32960ft 471kts
30-Jul-20 19:32 36.475116 -114.157332 46 32967ft 470kts
30-Jul-20 19:33 36.558826 -114.032689 46 33001ft 471kts
30-Jul-20 19:34 36.642180 -113.908075 46 33028ft 470kts
30-Jul-20 19:35 36.725627 -113.782952 46 33035ft 470kts
30-Jul-20 19:36 36.809073 -113.657324 46 33035ft 470kts
30-Jul-20 19:37 36.892316 -113.531544 46 33036ft 470kts
30-Jul-20 19:38 36.975367 -113.405565 46 33039ft 471kts
30-Jul-20 19:39 37.058294 -113.278989 46 33037ft 471kts
30-Jul-20 19:40 37.141214 -113.152377 46 33075ft 471kts
30-Jul-20 19:41 37.224186 -113.025429 46 33165ft 471kts
30-Jul-20 19:42 37.306622 -112.898502 46 33267ft 470kts
30-Jul-20 19:43 37.388798 -112.771457 46 33367ft 470kts
30-Jul-20 19:44 37.470902 -112.644010 45 33412ft 469kts
30-Jul-20 19:45 37.552760 -112.516494 45 33421ft 469kts
30-Jul-20 19:46 37.634767 -112.388890 42 33418ft 467kts
30-Jul-20 19:47 37.739309 -112.301868 11 33423ft 446kts
30-Jul-20 19:48 37.859956 -112.278771 359 33414ft 439kts
30-Jul-20 19:49 37.980825 -112.262694 0 33390ft 439kts
30-Jul-20 19:50 38.102044 -112.246089 0 33379ft 439kts
30-Jul-20 19:51 38.223127 -112.229386 0 33377ft 439kts
30-Jul-20 19:52 38.344689 -112.212575 0 33343ft 441kts
30-Jul-20 19:53 38.466396 -112.195662 0 33253ft 441kts
30-Jul-20 19:54 38.588141 -112.178713 0 33226ft 442kts
30-Jul-20 19:55 38.709893 -112.161702 0 33222ft 442kts
30-Jul-20 19:56 38.831863 -112.144705 0 33222ft 441kts
30-Jul-20 19:57 38.953781 -112.127860 0 33190ft 443kts
30-Jul-20 19:58 39.075775 -112.110986 1 31073ft 444kts
30-Jul-20 19:59 39.198686 -112.093927 2 28117ft 443kts
30-Jul-20 20:00 39.319055 -112.076973 3 25851ft 430kts
30-Jul-20 20:01 39.435414 -112.060461 3 23858ft 414kts
30-Jul-20 20:02 39.547893 -112.044472 4 21952ft 401kts
30-Jul-20 20:03 39.656856 -112.028951 4 20068ft 390kts
30-Jul-20 20:04 39.762889 -112.013813 5 18202ft 380kts
30-Jul-20 20:05 39.865722 -111.999070 5 16391ft 365kts
30-Jul-20 20:06 39.966350 -111.984696 5 15063ft 363kts
30-Jul-20 20:07 40.057007 -111.972198 4 15064ft 305kts
30-Jul-20 20:08 40.141615 -111.960580 4 15066ft 306kts
30-Jul-20 20:09 40.226270 -111.948874 4 15062ft 306kts
30-Jul-20 20:10 40.308991 -111.936042 3 13285ft 298kts
30-Jul-20 20:11 40.390357 -111.928734 357 11052ft 286kts
30-Jul-20 20:12 40.468153 -111.937285 355 10249ft 272kts
30-Jul-20 20:13 40.537632 -111.946473 355 9204ft 238kts
30-Jul-20 20:14 40.600188 -111.953150 357 8116ft 204kts
30-Jul-20 20:15 40.653074 -111.959272 356 6643ft 190kts
30-Jul-20 20:16 40.699439 -111.964291 355 5695ft 146kts
30-Jul-20 20:17 40.740080 -111.969057 355 4952ft 146kts
30-Jul-20 20:18 40.780105 -111.973765 355 4229ft 135kts
30-Jul-20 20:19 40.795159 -111.976341 324 4225ft 4kts
30-Jul-20 20:20 40.794384 -111.977612 174 4225ft 10kts
30-Jul-20 20:21 40.790606 -111.977182 196 4224ft 10kts
30-Jul-20 20:22 40.788203 -111.979653 188 4225ft 14kts
30-Jul-20 20:23 40.788093 -111.980882 291 4225ft 0kts
30-Jul-20 20:24 40.788093 -111.980882 291 4225ft 0kts

Navigation Log

Ident Type
Flight plan parsing failed, navigation log unavailable